Flight Track Log - Related Links

Times and Time Zones

All times are in EDT time to prevent confusion due to time zone crossing. See the CTL61 flight status page for this flight to view local times or setup timezone preferences in your user account.


Time Position Orientation Groundspeed Altitude Reporting Facility
EDT Latitude Longitude Course Direction KTS MPH feet Rate Location/Type
Thu 10:58:36 PM 37.3161 -81.2611 346° North 103 119 5,700  Level Indianapolis Center
Thu 10:59:37 PM 37.3517 -81.2719 346° North 114 131 6,000 197 Climbing Indianapolis Center
Thu 11:00:38 PM 37.3931 -81.2861 345° North 146 168 6,100 49 Climbing Indianapolis Center
Thu 11:01:39 PM 37.4422 -81.3042 344° North 155 178 6,100  Level Indianapolis Center
Thu 11:02:40 PM 37.4814 -81.3172 345° North 152 175 6,100 -49 Level Indianapolis Center
Thu 11:03:42 PM 37.5242 -81.3344 342° North 160 184 6,000 -49 Descending Indianapolis Center
Thu 11:04:43 PM 37.5664 -81.3464 347° North 159 183 6,000  Level Indianapolis Center
Thu 11:05:44 PM 37.6092 -81.3586 347° North 161 185 6,000  Level Indianapolis Center
Thu 11:06:46 PM 37.6611 -81.3764 345° North 163 188 6,000  Level Indianapolis Center
Thu 11:07:47 PM 37.7031 -81.3883 347° North 166 191 6,000  Level Indianapolis Center
Thu 11:08:48 PM 37.7478 -81.4025 346° North 162 186 6,000 -49 Level Indianapolis Center
Thu 11:09:49 PM 37.7917 -81.4158 347° North 163 188 5,900  Descending Indianapolis Center
Thu 11:10:51 PM 37.8372 -81.4292 347° North 166 191 6,000 49 Climbing Indianapolis Center
Thu 11:11:52 PM 37.8811 -81.4414 348° North 162 186 6,000  Level Indianapolis Center
Thu 11:12:53 PM 37.9250 -81.4567 345° North 162 186 6,000  Level Indianapolis Center
Thu 11:13:54 PM 37.9789 -81.4714 348° North 164 189 6,000 -98 Level Indianapolis Center
Thu 11:14:56 PM 38.0239 -81.4853 346° North 165 190 5,800 -341 Descending Indianapolis Center
Thu 11:15:57 PM 38.0714 -81.4997 347° North 172 198 5,300 -541 Descending Indianapolis Center
Thu 11:16:58 PM 38.1192 -81.5147 346° North 176 203 4,700 -492 Descending Indianapolis Center
Thu 11:17:59 PM 38.1658 -81.5289 347° North 173 199 4,300 -488 Descending Indianapolis Center
Thu 11:19:01 PM 38.2119 -81.5428 347° North 172 198 3,700 -585 Descending Indianapolis Center
Thu 11:20:02 PM 38.2578 -81.5572 346° North 170 196 3,100 -492 Descending Indianapolis Center
Thu 11:21:03 PM 38.3025 -81.5706 347° North 168 193 2,700 -344 Descending Indianapolis Center
Thu 11:22:04 PM 38.3442 -81.5703 360° North 161 185 2,400 -390 Descending Indianapolis Center
Thu 11:23:06 PM 38.3717 -81.5411 40° Northeast 142 163 1,900 -439 Descending Indianapolis Center
Thu 11:24:07 PM 38.3917 -81.5622 320° Northwest 114 131 1,500 -344 Descending Indianapolis Center
Thu 11:25:08 PM 38.3906 -81.5994 268° West 105 121 1,200 -295 Descending Indianapolis Center

Login

Don't have an account? Register now (free) for customized features, flight alerts, and more!